sensor_id;sensor_type;location;lat;lon;timestamp;temperature;humidity
11569;DHT22;5840;46.894;15.542;2024-02-23T00:00:02;9.70;99.90
11569;DHT22;5840;46.894;15.542;2024-02-23T00:02:31;9.60;99.90
11569;DHT22;5840;46.894;15.542;2024-02-23T00:04:58;9.50;99.90
11569;DHT22;5840;46.894;15.542;2024-02-23T00:14:48;9.60;99.90
11569;DHT22;5840;46.894;15.542;2024-02-23T00:17:14;9.60;99.90
11569;DHT22;5840;46.894;15.542;2024-02-23T00:19:44;9.70;99.90
11569;DHT22;5840;46.894;15.542;2024-02-23T00:22:11;9.70;99.90
11569;DHT22;5840;46.894;15.542;2024-02-23T00:24:37;9.80;99.90
11569;DHT22;5840;46.894;15.542;2024-02-23T00:27:03;9.90;99.90
11569;DHT22;5840;46.894;15.542;2024-02-23T00:29:29;9.80;99.90
11569;DHT22;5840;46.894;15.542;2024-02-23T00:31:56;9.80;99.90
11569;DHT22;5840;46.894;15.542;2024-02-23T00:39:25;9.70;99.90
11569;DHT22;5840;46.894;15.542;2024-02-23T00:41:51;9.80;99.90
11569;DHT22;5840;46.894;15.542;2024-02-23T00:44:17;9.80;99.90
11569;DHT22;5840;46.894;15.542;2024-02-23T00:46:44;9.70;99.90
11569;DHT22;5840;46.894;15.542;2024-02-23T00:49:10;9.60;99.90
11569;DHT22;5840;46.894;15.542;2024-02-23T00:51:36;9.60;99.90
11569;DHT22;5840;46.894;15.542;2024-02-23T00:54:02;9.60;99.90
11569;DHT22;5840;46.894;15.542;2024-02-23T00:56:29;9.60;99.90
11569;DHT22;5840;46.894;15.542;2024-02-23T01:03:59;9.70;99.90
11569;DHT22;5840;46.894;15.542;2024-02-23T01:06:25;9.70;99.90
11569;DHT22;5840;46.894;15.542;2024-02-23T01:08:53;9.60;99.90
11569;DHT22;5840;46.894;15.542;2024-02-23T01:11:20;9.60;99.90
11569;DHT22;5840;46.894;15.542;2024-02-23T01:13:46;9.60;99.90
11569;DHT22;5840;46.894;15.542;2024-02-23T01:16:12;9.70;99.90
11569;DHT22;5840;46.894;15.542;2024-02-23T01:18:38;9.60;99.90
11569;DHT22;5840;46.894;15.542;2024-02-23T01:21:05;9.50;99.90
11569;DHT22;5840;46.894;15.542;2024-02-23T01:31:01;9.20;99.90
11569;DHT22;5840;46.894;15.542;2024-02-23T01:33:27;8.90;99.90
11569;DHT22;5840;46.894;15.542;2024-02-23T01:35:54;8.80;99.90
11569;DHT22;5840;46.894;15.542;2024-02-23T01:38:25;8.80;99.90
11569;DHT22;5840;46.894;15.542;2024-02-23T01:40:59;8.70;99.90
11569;DHT22;5840;46.894;15.542;2024-02-23T01:43:27;8.60;99.90
11569;DHT22;5840;46.894;15.542;2024-02-23T01:45:56;8.60;99.90
11569;DHT22;5840;46.894;15.542;2024-02-23T01:51:06;8.60;99.90
11569;DHT22;5840;46.894;15.542;2024-02-23T01:53:34;8.70;99.90
11569;DHT22;5840;46.894;15.542;2024-02-23T01:56:03;8.70;99.90
11569;DHT22;5840;46.894;15.542;2024-02-23T01:58:32;8.80;99.90
11569;DHT22;5840;46.894;15.542;2024-02-23T02:01:03;8.80;99.90
11569;DHT22;5840;46.894;15.542;2024-02-23T02:03:32;8.90;99.90
11569;DHT22;5840;46.894;15.542;2024-02-23T02:06:01;8.90;99.90
11569;DHT22;5840;46.894;15.542;2024-02-23T02:08:32;9.00;99.90
11569;DHT22;5840;46.894;15.542;2024-02-23T02:16:07;9.10;99.90
11569;DHT22;5840;46.894;15.542;2024-02-23T02:18:35;9.10;99.90
11569;DHT22;5840;46.894;15.542;2024-02-23T02:21:04;9.10;99.90
11569;DHT22;5840;46.894;15.542;2024-02-23T02:23:35;9.10;99.90
11569;DHT22;5840;46.894;15.542;2024-02-23T02:26:06;9.10;99.90
11569;DHT22;5840;46.894;15.542;2024-02-23T02:28:34;9.20;99.90
11569;DHT22;5840;46.894;15.542;2024-02-23T02:31:03;9.20;99.90
11569;DHT22;5840;46.894;15.542;2024-02-23T02:36:09;9.20;99.90
11569;DHT22;5840;46.894;15.542;2024-02-23T02:38:39;9.30;99.90
11569;DHT22;5840;46.894;15.542;2024-02-23T02:41:08;9.20;99.90
11569;DHT22;5840;46.894;15.542;2024-02-23T02:43:36;9.30;99.90
11569;DHT22;5840;46.894;15.542;2024-02-23T02:46:03;9.20;99.90
11569;DHT22;5840;46.894;15.542;2024-02-23T02:48:29;9.20;99.90
11569;DHT22;5840;46.894;15.542;2024-02-23T02:50:56;9.20;99.90
11569;DHT22;5840;46.894;15.542;2024-02-23T02:56:05;9.20;99.90
11569;DHT22;5840;46.894;15.542;2024-02-23T02:58:31;9.10;99.90
11569;DHT22;5840;46.894;15.542;2024-02-23T03:00:57;9.10;99.90
11569;DHT22;5840;46.894;15.542;2024-02-23T03:03:23;9.20;99.90
11569;DHT22;5840;46.894;15.542;2024-02-23T03:05:49;9.20;99.90
11569;DHT22;5840;46.894;15.542;2024-02-23T03:08:16;9.20;99.90
11569;DHT22;5840;46.894;15.542;2024-02-23T03:10:42;9.20;99.90
11569;DHT22;5840;46.894;15.542;2024-02-23T03:13:09;9.20;99.90
11569;DHT22;5840;46.894;15.542;2024-02-23T03:23:03;9.30;99.90
11569;DHT22;5840;46.894;15.542;2024-02-23T03:25:29;9.30;99.90
11569;DHT22;5840;46.894;15.542;2024-02-23T03:27:55;9.30;99.90
11569;DHT22;5840;46.894;15.542;2024-02-23T03:30:21;9.40;99.90
11569;DHT22;5840;46.894;15.542;2024-02-23T03:32:47;9.40;99.90
11569;DHT22;5840;46.894;15.542;2024-02-23T03:35:13;9.40;99.90
11569;DHT22;5840;46.894;15.542;2024-02-23T03:37:40;9.40;99.90
11569;DHT22;5840;46.894;15.542;2024-02-23T03:40:08;9.40;99.90
11569;DHT22;5840;46.894;15.542;2024-02-23T03:49:59;9.30;99.90
11569;DHT22;5840;46.894;15.542;2024-02-23T03:52:26;9.30;99.90
11569;DHT22;5840;46.894;15.542;2024-02-23T03:54:52;9.30;99.90
11569;DHT22;5840;46.894;15.542;2024-02-23T03:57:19;9.30;99.90
11569;DHT22;5840;46.894;15.542;2024-02-23T03:59:52;9.30;99.90
11569;DHT22;5840;46.894;15.542;2024-02-23T04:02:18;9.30;99.90
11569;DHT22;5840;46.894;15.542;2024-02-23T04:04:44;9.30;99.90
11569;DHT22;5840;46.894;15.542;2024-02-23T04:07:11;9.30;99.90
11569;DHT22;5840;46.894;15.542;2024-02-23T04:14:40;9.40;99.90
11569;DHT22;5840;46.894;15.542;2024-02-23T04:17:06;9.40;99.90
11569;DHT22;5840;46.894;15.542;2024-02-23T04:19:32;9.40;99.90
11569;DHT22;5840;46.894;15.542;2024-02-23T04:21:59;9.40;99.90
11569;DHT22;5840;46.894;15.542;2024-02-23T04:24:25;9.30;99.90
11569;DHT22;5840;46.894;15.542;2024-02-23T04:26:52;9.30;99.90
11569;DHT22;5840;46.894;15.542;2024-02-23T04:29:18;9.30;99.90
11569;DHT22;5840;46.894;15.542;2024-02-23T04:31:45;9.20;99.90
11569;DHT22;5840;46.894;15.542;2024-02-23T04:41:40;9.20;99.90
11569;DHT22;5840;46.894;15.542;2024-02-23T04:44:06;9.10;99.90
11569;DHT22;5840;46.894;15.542;2024-02-23T04:46:32;9.10;99.90
11569;DHT22;5840;46.894;15.542;2024-02-23T04:48:59;9.10;99.90
11569;DHT22;5840;46.894;15.542;2024-02-23T04:51:26;9.20;99.90
11569;DHT22;5840;46.894;15.542;2024-02-23T04:53:52;9.20;99.90
11569;DHT22;5840;46.894;15.542;2024-02-23T04:56:19;9.10;99.90
11569;DHT22;5840;46.894;15.542;2024-02-23T04:58:46;9.10;99.90
11569;DHT22;5840;46.894;15.542;2024-02-23T05:06:16;9.20;99.90
11569;DHT22;5840;46.894;15.542;2024-02-23T05:08:42;9.20;99.90
11569;DHT22;5840;46.894;15.542;2024-02-23T05:11:08;9.20;99.90
11569;DHT22;5840;46.894;15.542;2024-02-23T05:13:34;9.20;99.90
11569;DHT22;5840;46.894;15.542;2024-02-23T05:16:00;9.30;99.90
11569;DHT22;5840;46.894;15.542;2024-02-23T05:18:26;9.30;99.90
11569;DHT22;5840;46.894;15.542;2024-02-23T05:20:53;9.20;99.90
11569;DHT22;5840;46.894;15.542;2024-02-23T05:23:20;9.20;99.90
11569;DHT22;5840;46.894;15.542;2024-02-23T05:30:48;9.20;99.90
11569;DHT22;5840;46.894;15.542;2024-02-23T05:33:14;9.20;99.90
11569;DHT22;5840;46.894;15.542;2024-02-23T05:35:41;9.20;99.90
11569;DHT22;5840;46.894;15.542;2024-02-23T05:38:07;9.20;99.90
11569;DHT22;5840;46.894;15.542;2024-02-23T05:40:33;9.20;99.90
11569;DHT22;5840;46.894;15.542;2024-02-23T05:42:59;9.10;99.90
11569;DHT22;5840;46.894;15.542;2024-02-23T05:45:25;9.20;99.90
11569;DHT22;5840;46.894;15.542;2024-02-23T05:47:52;9.10;99.90
11569;DHT22;5840;46.894;15.542;2024-02-23T05:55:21;9.10;99.90
11569;DHT22;5840;46.894;15.542;2024-02-23T05:57:47;9.20;99.90
11569;DHT22;5840;46.894;15.542;2024-02-23T06:00:14;9.20;99.90
11569;DHT22;5840;46.894;15.542;2024-02-23T06:02:41;9.10;99.90
11569;DHT22;5840;46.894;15.542;2024-02-23T06:05:07;9.10;99.90
11569;DHT22;5840;46.894;15.542;2024-02-23T06:07:33;9.10;99.90
11569;DHT22;5840;46.894;15.542;2024-02-23T06:10:00;9.10;99.90
11569;DHT22;5840;46.894;15.542;2024-02-23T06:12:27;9.10;99.90
11569;DHT22;5840;46.894;15.542;2024-02-23T06:22:22;9.10;99.90
11569;DHT22;5840;46.894;15.542;2024-02-23T06:24:50;9.10;99.90
11569;DHT22;5840;46.894;15.542;2024-02-23T06:27:16;9.10;99.90
11569;DHT22;5840;46.894;15.542;2024-02-23T06:29:42;9.10;99.90
11569;DHT22;5840;46.894;15.542;2024-02-23T06:32:09;9.10;99.90
11569;DHT22;5840;46.894;15.542;2024-02-23T06:34:35;9.10;99.90
11569;DHT22;5840;46.894;15.542;2024-02-23T06:37:01;9.20;99.90
11569;DHT22;5840;46.894;15.542;2024-02-23T06:39:29;9.20;99.90
11569;DHT22;5840;46.894;15.542;2024-02-23T06:49:24;9.20;99.90
11569;DHT22;5840;46.894;15.542;2024-02-23T06:51:50;9.10;99.90
11569;DHT22;5840;46.894;15.542;2024-02-23T06:54:16;9.10;99.90
11569;DHT22;5840;46.894;15.542;2024-02-23T06:56:43;9.10;99.90
11569;DHT22;5840;46.894;15.542;2024-02-23T06:59:11;9.10;99.90
11569;DHT22;5840;46.894;15.542;2024-02-23T07:01:47;9.10;99.90
11569;DHT22;5840;46.894;15.542;2024-02-23T07:04:13;9.10;99.90
11569;DHT22;5840;46.894;15.542;2024-02-23T07:06:40;9.20;99.90
11569;DHT22;5840;46.894;15.542;2024-02-23T07:16:30;9.30;99.90
11569;DHT22;5840;46.894;15.542;2024-02-23T07:18:57;9.30;99.90
11569;DHT22;5840;46.894;15.542;2024-02-23T07:21:24;9.40;99.90
11569;DHT22;5840;46.894;15.542;2024-02-23T07:23:51;9.40;99.90
11569;DHT22;5840;46.894;15.542;2024-02-23T07:26:17;9.40;99.90
11569;DHT22;5840;46.894;15.542;2024-02-23T07:28:45;9.40;99.90
11569;DHT22;5840;46.894;15.542;2024-02-23T07:31:11;9.50;99.90
11569;DHT22;5840;46.894;15.542;2024-02-23T07:33:38;9.50;99.90
11569;DHT22;5840;46.894;15.542;2024-02-23T07:43:35;9.60;99.90
11569;DHT22;5840;46.894;15.542;2024-02-23T07:46:01;9.70;99.90
11569;DHT22;5840;46.894;15.542;2024-02-23T07:48:28;9.70;99.90
11569;DHT22;5840;46.894;15.542;2024-02-23T07:50:54;9.70;99.90
11569;DHT22;5840;46.894;15.542;2024-02-23T07:53:20;9.70;99.90
11569;DHT22;5840;46.894;15.542;2024-02-23T07:55:46;9.70;99.90
11569;DHT22;5840;46.894;15.542;2024-02-23T07:58:12;9.70;99.90
11569;DHT22;5840;46.894;15.542;2024-02-23T08:00:39;9.70;99.90
11569;DHT22;5840;46.894;15.542;2024-02-23T08:10:35;9.60;99.90
11569;DHT22;5840;46.894;15.542;2024-02-23T08:13:01;9.60;99.90
11569;DHT22;5840;46.894;15.542;2024-02-23T08:15:27;9.50;99.90
11569;DHT22;5840;46.894;15.542;2024-02-23T08:17:54;9.60;99.90
11569;DHT22;5840;46.894;15.542;2024-02-23T08:20:20;9.50;99.90
11569;DHT22;5840;46.894;15.542;2024-02-23T08:22:46;9.50;99.90
11569;DHT22;5840;46.894;15.542;2024-02-23T08:25:13;9.50;99.90
11569;DHT22;5840;46.894;15.542;2024-02-23T08:27:41;9.40;99.90
11569;DHT22;5840;46.894;15.542;2024-02-23T08:37:32;9.40;99.90
11569;DHT22;5840;46.894;15.542;2024-02-23T08:39:58;9.40;99.90
11569;DHT22;5840;46.894;15.542;2024-02-23T08:42:24;9.40;99.90
11569;DHT22;5840;46.894;15.542;2024-02-23T08:44:50;9.40;99.90
11569;DHT22;5840;46.894;15.542;2024-02-23T08:47:17;9.40;99.90
11569;DHT22;5840;46.894;15.542;2024-02-23T08:49:43;9.40;99.90
11569;DHT22;5840;46.894;15.542;2024-02-23T08:52:09;9.40;99.90
11569;DHT22;5840;46.894;15.542;2024-02-23T08:54:36;9.40;99.90
11569;DHT22;5840;46.894;15.542;2024-02-23T09:02:06;9.30;99.90
11569;DHT22;5840;46.894;15.542;2024-02-23T09:04:32;9.30;99.90
11569;DHT22;5840;46.894;15.542;2024-02-23T09:06:58;9.30;99.90
11569;DHT22;5840;46.894;15.542;2024-02-23T09:09:24;9.30;99.90
11569;DHT22;5840;46.894;15.542;2024-02-23T09:11:51;9.20;99.90
11569;DHT22;5840;46.894;15.542;2024-02-23T09:14:17;9.20;99.90
11569;DHT22;5840;46.894;15.542;2024-02-23T09:16:43;9.20;99.90
11569;DHT22;5840;46.894;15.542;2024-02-23T09:19:12;9.20;99.90
11569;DHT22;5840;46.894;15.542;2024-02-23T09:29:07;9.20;99.90
11569;DHT22;5840;46.894;15.542;2024-02-23T09:31:33;9.20;99.90
11569;DHT22;5840;46.894;15.542;2024-02-23T09:34:00;9.20;99.90
11569;DHT22;5840;46.894;15.542;2024-02-23T09:36:26;9.20;99.90
11569;DHT22;5840;46.894;15.542;2024-02-23T09:38:52;9.20;99.90
11569;DHT22;5840;46.894;15.542;2024-02-23T09:41:20;9.10;99.90
11569;DHT22;5840;46.894;15.542;2024-02-23T09:43:47;9.10;99.90
11569;DHT22;5840;46.894;15.542;2024-02-23T09:46:15;9.20;99.90
11569;DHT22;5840;46.894;15.542;2024-02-23T09:53:45;9.20;99.90
11569;DHT22;5840;46.894;15.542;2024-02-23T09:56:14;9.20;99.90
11569;DHT22;5840;46.894;15.542;2024-02-23T09:58:44;9.10;99.90
11569;DHT22;5840;46.894;15.542;2024-02-23T10:01:11;9.20;99.90
11569;DHT22;5840;46.894;15.542;2024-02-23T10:03:38;9.20;99.90
11569;DHT22;5840;46.894;15.542;2024-02-23T10:06:04;9.20;99.90
11569;DHT22;5840;46.894;15.542;2024-02-23T10:08:31;9.20;99.90
11569;DHT22;5840;46.894;15.542;2024-02-23T10:10:58;9.20;99.90
11569;DHT22;5840;46.894;15.542;2024-02-23T10:18:27;9.20;99.90
11569;DHT22;5840;46.894;15.542;2024-02-23T10:20:53;9.20;99.90
11569;DHT22;5840;46.894;15.542;2024-02-23T10:23:19;9.10;99.90
11569;DHT22;5840;46.894;15.542;2024-02-23T10:25:46;9.10;99.90
11569;DHT22;5840;46.894;15.542;2024-02-23T10:28:13;9.10;99.90
11569;DHT22;5840;46.894;15.542;2024-02-23T10:30:39;9.10;99.90
11569;DHT22;5840;46.894;15.542;2024-02-23T10:33:05;9.20;99.90
11569;DHT22;5840;46.894;15.542;2024-02-23T10:35:34;9.20;99.90
11569;DHT22;5840;46.894;15.542;2024-02-23T10:43:12;9.20;99.90
11569;DHT22;5840;46.894;15.542;2024-02-23T10:45:39;9.30;99.90
11569;DHT22;5840;46.894;15.542;2024-02-23T10:48:06;9.30;99.90
11569;DHT22;5840;46.894;15.542;2024-02-23T10:50:33;9.30;99.90
11569;DHT22;5840;46.894;15.542;2024-02-23T10:53:01;9.30;99.90
11569;DHT22;5840;46.894;15.542;2024-02-23T10:55:28;9.30;99.90
11569;DHT22;5840;46.894;15.542;2024-02-23T10:57:55;9.30;99.90
11569;DHT22;5840;46.894;15.542;2024-02-23T11:00:23;9.30;99.90
11569;DHT22;5840;46.894;15.542;2024-02-23T11:02:53;9.20;99.90
11569;DHT22;5840;46.894;15.542;2024-02-23T11:12:57;9.10;99.90
11569;DHT22;5840;46.894;15.542;2024-02-23T11:15:27;9.00;99.90
11569;DHT22;5840;46.894;15.542;2024-02-23T11:17:54;9.00;99.90
11569;DHT22;5840;46.894;15.542;2024-02-23T11:20:21;9.00;99.90
11569;DHT22;5840;46.894;15.542;2024-02-23T11:22:52;9.00;99.90
11569;DHT22;5840;46.894;15.542;2024-02-23T11:25:18;9.00;99.90
11569;DHT22;5840;46.894;15.542;2024-02-23T11:27:49;9.00;99.90
11569;DHT22;5840;46.894;15.542;2024-02-23T11:30:17;9.00;99.90
11569;DHT22;5840;46.894;15.542;2024-02-23T11:37:48;9.10;99.90
11569;DHT22;5840;46.894;15.542;2024-02-23T11:40:15;9.10;99.90
11569;DHT22;5840;46.894;15.542;2024-02-23T11:42:43;9.10;99.90
11569;DHT22;5840;46.894;15.542;2024-02-23T11:45:10;9.20;99.90
11569;DHT22;5840;46.894;15.542;2024-02-23T11:47:36;9.20;99.90
11569;DHT22;5840;46.894;15.542;2024-02-23T11:50:03;9.20;99.90
11569;DHT22;5840;46.894;15.542;2024-02-23T11:52:29;9.30;99.90
11569;DHT22;5840;46.894;15.542;2024-02-23T11:54:57;9.30;99.90
11569;DHT22;5840;46.894;15.542;2024-02-23T12:04:47;9.40;99.90
11569;DHT22;5840;46.894;15.542;2024-02-23T12:07:13;9.40;99.90
11569;DHT22;5840;46.894;15.542;2024-02-23T12:09:41;9.40;99.90
11569;DHT22;5840;46.894;15.542;2024-02-23T12:12:08;9.40;99.90
11569;DHT22;5840;46.894;15.542;2024-02-23T12:14:35;9.50;99.90
11569;DHT22;5840;46.894;15.542;2024-02-23T12:17:02;9.40;99.90
11569;DHT22;5840;46.894;15.542;2024-02-23T12:19:29;9.40;99.90
11569;DHT22;5840;46.894;15.542;2024-02-23T12:22:00;9.40;99.90
11569;DHT22;5840;46.894;15.542;2024-02-23T12:29:29;9.50;99.90
11569;DHT22;5840;46.894;15.542;2024-02-23T12:32:03;9.50;99.90
11569;DHT22;5840;46.894;15.542;2024-02-23T12:34:29;9.50;99.90
11569;DHT22;5840;46.894;15.542;2024-02-23T12:36:55;9.50;99.90
11569;DHT22;5840;46.894;15.542;2024-02-23T12:39:22;9.50;99.90
11569;DHT22;5840;46.894;15.542;2024-02-23T12:41:48;9.40;99.90
11569;DHT22;5840;46.894;15.542;2024-02-23T12:44:14;9.40;99.90
11569;DHT22;5840;46.894;15.542;2024-02-23T12:46:41;9.40;99.90
11569;DHT22;5840;46.894;15.542;2024-02-23T12:54:11;9.20;99.90
11569;DHT22;5840;46.894;15.542;2024-02-23T12:56:37;9.20;99.90
11569;DHT22;5840;46.894;15.542;2024-02-23T12:59:04;9.30;99.90
11569;DHT22;5840;46.894;15.542;2024-02-23T13:01:30;9.20;99.90
11569;DHT22;5840;46.894;15.542;2024-02-23T13:04:02;9.30;99.90
11569;DHT22;5840;46.894;15.542;2024-02-23T13:06:28;9.20;99.90
11569;DHT22;5840;46.894;15.542;2024-02-23T13:08:54;9.20;99.90
11569;DHT22;5840;46.894;15.542;2024-02-23T13:11:21;9.20;99.90
11569;DHT22;5840;46.894;15.542;2024-02-23T13:18:50;9.20;99.90
11569;DHT22;5840;46.894;15.542;2024-02-23T13:21:17;9.20;99.90
11569;DHT22;5840;46.894;15.542;2024-02-23T13:23:43;9.30;99.90
11569;DHT22;5840;46.894;15.542;2024-02-23T13:26:09;9.20;99.90
11569;DHT22;5840;46.894;15.542;2024-02-23T13:28:36;9.30;99.90
11569;DHT22;5840;46.894;15.542;2024-02-23T13:31:02;9.30;99.90
11569;DHT22;5840;46.894;15.542;2024-02-23T13:33:28;9.30;99.90
11569;DHT22;5840;46.894;15.542;2024-02-23T13:35:55;9.40;99.90
11569;DHT22;5840;46.894;15.542;2024-02-23T13:45:51;9.50;99.90
11569;DHT22;5840;46.894;15.542;2024-02-23T13:48:18;9.70;99.90
11569;DHT22;5840;46.894;15.542;2024-02-23T13:50:45;9.70;99.90
11569;DHT22;5840;46.894;15.542;2024-02-23T13:53:12;9.70;99.90
11569;DHT22;5840;46.894;15.542;2024-02-23T13:55:38;9.80;99.90
11569;DHT22;5840;46.894;15.542;2024-02-23T13:58:04;9.80;99.90
11569;DHT22;5840;46.894;15.542;2024-02-23T14:00:31;9.90;99.90
11569;DHT22;5840;46.894;15.542;2024-02-23T14:02:58;9.90;99.90
11569;DHT22;5840;46.894;15.542;2024-02-23T14:10:27;9.90;99.90
11569;DHT22;5840;46.894;15.542;2024-02-23T14:12:54;9.90;99.90
11569;DHT22;5840;46.894;15.542;2024-02-23T14:15:21;9.90;99.90
11569;DHT22;5840;46.894;15.542;2024-02-23T14:17:48;10.00;99.90
11569;DHT22;5840;46.894;15.542;2024-02-23T14:20:14;10.00;99.90
11569;DHT22;5840;46.894;15.542;2024-02-23T14:22:41;9.90;99.90
11569;DHT22;5840;46.894;15.542;2024-02-23T14:25:07;9.90;99.90
11569;DHT22;5840;46.894;15.542;2024-02-23T14:27:35;9.90;99.90
11569;DHT22;5840;46.894;15.542;2024-02-23T14:35:05;9.80;99.90
11569;DHT22;5840;46.894;15.542;2024-02-23T14:37:32;9.90;99.90
11569;DHT22;5840;46.894;15.542;2024-02-23T14:39:58;9.90;99.90
11569;DHT22;5840;46.894;15.542;2024-02-23T14:42:24;9.90;99.90
11569;DHT22;5840;46.894;15.542;2024-02-23T14:44:50;9.90;99.90
11569;DHT22;5840;46.894;15.542;2024-02-23T14:47:17;9.90;99.90
11569;DHT22;5840;46.894;15.542;2024-02-23T14:49:43;9.90;99.90
11569;DHT22;5840;46.894;15.542;2024-02-23T14:52:10;9.90;99.90
11569;DHT22;5840;46.894;15.542;2024-02-23T14:59:39;9.90;99.90
11569;DHT22;5840;46.894;15.542;2024-02-23T15:02:17;9.90;99.90
11569;DHT22;5840;46.894;15.542;2024-02-23T15:04:44;9.90;99.90
11569;DHT22;5840;46.894;15.542;2024-02-23T15:07:11;9.90;99.90
11569;DHT22;5840;46.894;15.542;2024-02-23T15:09:37;9.90;99.90
11569;DHT22;5840;46.894;15.542;2024-02-23T15:12:03;9.80;99.90
11569;DHT22;5840;46.894;15.542;2024-02-23T15:14:30;9.80;99.90
11569;DHT22;5840;46.894;15.542;2024-02-23T15:16:57;9.80;99.90
11569;DHT22;5840;46.894;15.542;2024-02-23T15:24:41;9.80;99.90
11569;DHT22;5840;46.894;15.542;2024-02-23T15:27:08;9.80;99.90
11569;DHT22;5840;46.894;15.542;2024-02-23T15:29:34;9.80;99.90
11569;DHT22;5840;46.894;15.542;2024-02-23T15:32:01;9.90;99.90
11569;DHT22;5840;46.894;15.542;2024-02-23T15:34:27;9.90;99.90
11569;DHT22;5840;46.894;15.542;2024-02-23T15:36:53;9.90;99.90
11569;DHT22;5840;46.894;15.542;2024-02-23T15:39:20;9.90;99.90
11569;DHT22;5840;46.894;15.542;2024-02-23T15:41:47;9.90;99.90
11569;DHT22;5840;46.894;15.542;2024-02-23T15:51:39;9.80;99.90
11569;DHT22;5840;46.894;15.542;2024-02-23T15:54:06;9.80;99.90
11569;DHT22;5840;46.894;15.542;2024-02-23T15:56:32;9.80;99.90
11569;DHT22;5840;46.894;15.542;2024-02-23T15:58:59;9.80;99.90
11569;DHT22;5840;46.894;15.542;2024-02-23T16:01:26;9.80;99.90
11569;DHT22;5840;46.894;15.542;2024-02-23T16:03:53;9.80;99.90
11569;DHT22;5840;46.894;15.542;2024-02-23T16:06:19;9.90;99.90
11569;DHT22;5840;46.894;15.542;2024-02-23T16:08:46;9.90;99.90
11569;DHT22;5840;46.894;15.542;2024-02-23T16:18:37;9.90;99.90
11569;DHT22;5840;46.894;15.542;2024-02-23T16:21:04;9.90;99.90
11569;DHT22;5840;46.894;15.542;2024-02-23T16:23:30;9.80;99.90
11569;DHT22;5840;46.894;15.542;2024-02-23T16:25:57;9.70;99.90
11569;DHT22;5840;46.894;15.542;2024-02-23T16:28:23;9.60;99.90
11569;DHT22;5840;46.894;15.542;2024-02-23T16:30:49;9.60;99.90
11569;DHT22;5840;46.894;15.542;2024-02-23T16:33:15;9.50;99.90
11569;DHT22;5840;46.894;15.542;2024-02-23T16:35:43;9.50;99.90
11569;DHT22;5840;46.894;15.542;2024-02-23T16:45:33;9.20;99.90
11569;DHT22;5840;46.894;15.542;2024-02-23T16:47:59;9.00;99.90
11569;DHT22;5840;46.894;15.542;2024-02-23T16:50:28;9.00;99.90
11569;DHT22;5840;46.894;15.542;2024-02-23T16:52:54;8.90;99.90
11569;DHT22;5840;46.894;15.542;2024-02-23T16:55:21;8.90;99.90
11569;DHT22;5840;46.894;15.542;2024-02-23T16:57:47;8.90;99.90
11569;DHT22;5840;46.894;15.542;2024-02-23T17:00:14;8.90;99.90
11569;DHT22;5840;46.894;15.542;2024-02-23T17:05:18;8.90;99.90
11569;DHT22;5840;46.894;15.542;2024-02-23T17:07:44;8.90;99.90
11569;DHT22;5840;46.894;15.542;2024-02-23T17:10:10;8.80;99.90
11569;DHT22;5840;46.894;15.542;2024-02-23T17:12:36;8.80;99.90
11569;DHT22;5840;46.894;15.542;2024-02-23T17:15:03;8.80;99.90
11569;DHT22;5840;46.894;15.542;2024-02-23T17:17:30;8.70;99.90
11569;DHT22;5840;46.894;15.542;2024-02-23T17:19:56;8.70;99.90
11569;DHT22;5840;46.894;15.542;2024-02-23T17:22:23;8.60;99.90
11569;DHT22;5840;46.894;15.542;2024-02-23T17:29:55;8.60;99.90
11569;DHT22;5840;46.894;15.542;2024-02-23T17:32:22;8.60;99.90
11569;DHT22;5840;46.894;15.542;2024-02-23T17:34:48;8.70;99.90
11569;DHT22;5840;46.894;15.542;2024-02-23T17:37:14;8.60;99.90
11569;DHT22;5840;46.894;15.542;2024-02-23T17:39:41;8.60;99.90
11569;DHT22;5840;46.894;15.542;2024-02-23T17:42:07;8.60;99.90
11569;DHT22;5840;46.894;15.542;2024-02-23T17:44:34;8.60;99.90
11569;DHT22;5840;46.894;15.542;2024-02-23T17:49:38;8.60;99.90
11569;DHT22;5840;46.894;15.542;2024-02-23T17:52:05;8.60;99.90
11569;DHT22;5840;46.894;15.542;2024-02-23T17:54:31;8.60;99.90
11569;DHT22;5840;46.894;15.542;2024-02-23T17:56:57;8.60;99.90
11569;DHT22;5840;46.894;15.542;2024-02-23T17:59:23;8.60;99.90
11569;DHT22;5840;46.894;15.542;2024-02-23T18:01:49;8.60;99.90
11569;DHT22;5840;46.894;15.542;2024-02-23T18:04:16;8.70;99.90
11569;DHT22;5840;46.894;15.542;2024-02-23T18:06:43;8.80;99.90
11569;DHT22;5840;46.894;15.542;2024-02-23T18:16:38;8.80;99.90
11569;DHT22;5840;46.894;15.542;2024-02-23T18:19:04;9.00;99.90
11569;DHT22;5840;46.894;15.542;2024-02-23T18:21:30;8.90;99.90
11569;DHT22;5840;46.894;15.542;2024-02-23T18:23:57;9.00;99.90
11569;DHT22;5840;46.894;15.542;2024-02-23T18:26:23;9.00;99.90
11569;DHT22;5840;46.894;15.542;2024-02-23T18:28:49;9.00;99.90
11569;DHT22;5840;46.894;15.542;2024-02-23T18:31:16;9.10;99.90
11569;DHT22;5840;46.894;15.542;2024-02-23T18:33:43;9.20;99.90
11569;DHT22;5840;46.894;15.542;2024-02-23T18:43:38;9.00;99.90
11569;DHT22;5840;46.894;15.542;2024-02-23T18:46:05;8.90;99.90
11569;DHT22;5840;46.894;15.542;2024-02-23T18:48:32;8.90;99.90
11569;DHT22;5840;46.894;15.542;2024-02-23T18:50:58;8.80;99.90
11569;DHT22;5840;46.894;15.542;2024-02-23T18:53:25;8.90;99.90
11569;DHT22;5840;46.894;15.542;2024-02-23T18:55:51;8.90;99.90
11569;DHT22;5840;46.894;15.542;2024-02-23T18:58:18;9.00;99.90
11569;DHT22;5840;46.894;15.542;2024-02-23T19:03:23;9.00;99.90
11569;DHT22;5840;46.894;15.542;2024-02-23T19:05:49;9.00;99.90
11569;DHT22;5840;46.894;15.542;2024-02-23T19:08:18;9.00;99.90
11569;DHT22;5840;46.894;15.542;2024-02-23T19:10:44;8.90;99.90
11569;DHT22;5840;46.894;15.542;2024-02-23T19:13:11;8.90;99.90
11569;DHT22;5840;46.894;15.542;2024-02-23T19:15:38;8.90;99.90
11569;DHT22;5840;46.894;15.542;2024-02-23T19:18:06;8.80;99.90
11569;DHT22;5840;46.894;15.542;2024-02-23T19:20:33;8.70;99.90
11569;DHT22;5840;46.894;15.542;2024-02-23T19:30:23;8.50;99.90
11569;DHT22;5840;46.894;15.542;2024-02-23T19:32:49;8.40;99.90
11569;DHT22;5840;46.894;15.542;2024-02-23T19:35:17;8.40;99.90
11569;DHT22;5840;46.894;15.542;2024-02-23T19:37:43;8.40;99.90
11569;DHT22;5840;46.894;15.542;2024-02-23T19:40:10;8.40;99.90
11569;DHT22;5840;46.894;15.542;2024-02-23T19:42:39;8.30;99.90
11569;DHT22;5840;46.894;15.542;2024-02-23T19:45:06;8.20;99.90
11569;DHT22;5840;46.894;15.542;2024-02-23T19:47:33;8.10;99.90
11569;DHT22;5840;46.894;15.542;2024-02-23T19:57:20;8.00;99.90
11569;DHT22;5840;46.894;15.542;2024-02-23T19:59:46;7.90;99.90
11569;DHT22;5840;46.894;15.542;2024-02-23T20:02:13;7.90;99.90
11569;DHT22;5840;46.894;15.542;2024-02-23T20:04:39;7.80;99.90
11569;DHT22;5840;46.894;15.542;2024-02-23T20:07:06;7.80;99.90
11569;DHT22;5840;46.894;15.542;2024-02-23T20:09:35;7.80;99.90
11569;DHT22;5840;46.894;15.542;2024-02-23T20:12:01;7.80;99.90
11569;DHT22;5840;46.894;15.542;2024-02-23T20:14:28;7.80;99.90
11569;DHT22;5840;46.894;15.542;2024-02-23T20:24:24;7.70;99.90
11569;DHT22;5840;46.894;15.542;2024-02-23T20:26:53;7.60;99.90
11569;DHT22;5840;46.894;15.542;2024-02-23T20:29:20;7.60;99.90